sensor_id;sensor_type;location;lat;lon;timestamp;P1;durP1;ratioP1;P2;durP2;ratioP2
75916;SDS011;64595;50.148;14.334;2023-06-10T00:02:16;21.48;;;12.55;;
75916;SDS011;64595;50.148;14.334;2023-06-10T00:04:42;18.98;;;13.02;;
75916;SDS011;64595;50.148;14.334;2023-06-10T00:07:07;18.10;;;12.07;;
75916;SDS011;64595;50.148;14.334;2023-06-10T00:09:33;21.77;;;13.50;;
75916;SDS011;64595;50.148;14.334;2023-06-10T00:11:58;21.42;;;13.05;;
75916;SDS011;64595;50.148;14.334;2023-06-10T00:14:24;23.90;;;13.07;;
75916;SDS011;64595;50.148;14.334;2023-06-10T00:16:49;21.98;;;13.23;;
75916;SDS011;64595;50.148;14.334;2023-06-10T00:19:16;25.90;;;14.32;;
75916;SDS011;64595;50.148;14.334;2023-06-10T00:21:42;18.17;;;13.32;;
75916;SDS011;64595;50.148;14.334;2023-06-10T00:24:07;23.02;;;15.20;;
75916;SDS011;64595;50.148;14.334;2023-06-10T00:26:33;24.45;;;13.65;;
75916;SDS011;64595;50.148;14.334;2023-06-10T00:28:59;20.40;;;13.10;;
75916;SDS011;64595;50.148;14.334;2023-06-10T00:31:24;22.83;;;13.30;;
75916;SDS011;64595;50.148;14.334;2023-06-10T00:33:50;20.17;;;12.55;;
75916;SDS011;64595;50.148;14.334;2023-06-10T00:36:17;19.20;;;12.45;;
75916;SDS011;64595;50.148;14.334;2023-06-10T00:38:43;21.70;;;13.55;;
75916;SDS011;64595;50.148;14.334;2023-06-10T00:41:08;24.58;;;13.90;;
75916;SDS011;64595;50.148;14.334;2023-06-10T00:43:34;18.30;;;12.70;;
75916;SDS011;64595;50.148;14.334;2023-06-10T00:45:59;23.48;;;12.77;;
75916;SDS011;64595;50.148;14.334;2023-06-10T00:48:25;25.13;;;13.10;;
75916;SDS011;64595;50.148;14.334;2023-06-10T00:50:51;19.48;;;12.35;;
75916;SDS011;64595;50.148;14.334;2023-06-10T00:53:18;22.80;;;12.55;;
75916;SDS011;64595;50.148;14.334;2023-06-10T00:55:43;19.60;;;12.70;;
75916;SDS011;64595;50.148;14.334;2023-06-10T00:58:09;26.80;;;13.70;;
75916;SDS011;64595;50.148;14.334;2023-06-10T01:00:35;20.95;;;13.18;;
75916;SDS011;64595;50.148;14.334;2023-06-10T01:03:00;19.27;;;12.25;;
75916;SDS011;64595;50.148;14.334;2023-06-10T01:05:26;20.15;;;13.10;;
75916;SDS011;64595;50.148;14.334;2023-06-10T01:07:54;24.42;;;13.23;;
75916;SDS011;64595;50.148;14.334;2023-06-10T01:10:29;24.38;;;13.63;;
75916;SDS011;64595;50.148;14.334;2023-06-10T01:12:58;29.10;;;15.50;;
75916;SDS011;64595;50.148;14.334;2023-06-10T01:15:25;25.40;;;13.48;;
75916;SDS011;64595;50.148;14.334;2023-06-10T01:17:54;19.33;;;12.73;;
75916;SDS011;64595;50.148;14.334;2023-06-10T01:20:20;23.75;;;12.13;;
75916;SDS011;64595;50.148;14.334;2023-06-10T01:22:47;17.25;;;12.40;;
75916;SDS011;64595;50.148;14.334;2023-06-10T01:25:12;23.50;;;12.93;;
75916;SDS011;64595;50.148;14.334;2023-06-10T01:27:38;19.83;;;12.68;;
75916;SDS011;64595;50.148;14.334;2023-06-10T01:30:07;20.80;;;12.80;;
75916;SDS011;64595;50.148;14.334;2023-06-10T01:32:44;21.17;;;13.57;;
75916;SDS011;64595;50.148;14.334;2023-06-10T01:35:10;22.70;;;14.10;;
75916;SDS011;64595;50.148;14.334;2023-06-10T01:37:37;20.00;;;13.05;;
75916;SDS011;64595;50.148;14.334;2023-06-10T01:40:06;21.70;;;13.50;;
75916;SDS011;64595;50.148;14.334;2023-06-10T01:42:33;19.25;;;12.35;;
75916;SDS011;64595;50.148;14.334;2023-06-10T01:44:58;25.55;;;13.77;;
75916;SDS011;64595;50.148;14.334;2023-06-10T01:47:24;20.88;;;13.68;;
75916;SDS011;64595;50.148;14.334;2023-06-10T01:49:49;18.65;;;12.55;;
75916;SDS011;64595;50.148;14.334;2023-06-10T01:52:15;19.13;;;12.55;;
75916;SDS011;64595;50.148;14.334;2023-06-10T01:54:40;25.13;;;14.00;;
75916;SDS011;64595;50.148;14.334;2023-06-10T01:57:08;26.50;;;15.85;;
75916;SDS011;64595;50.148;14.334;2023-06-10T01:59:33;21.98;;;13.65;;
75916;SDS011;64595;50.148;14.334;2023-06-10T02:01:59;23.27;;;13.10;;
75916;SDS011;64595;50.148;14.334;2023-06-10T02:04:24;23.02;;;12.88;;
75916;SDS011;64595;50.148;14.334;2023-06-10T02:06:50;22.45;;;12.57;;
75916;SDS011;64595;50.148;14.334;2023-06-10T02:09:15;22.55;;;12.32;;
75916;SDS011;64595;50.148;14.334;2023-06-10T02:11:41;22.80;;;12.52;;
75916;SDS011;64595;50.148;14.334;2023-06-10T02:14:08;22.23;;;12.98;;
75916;SDS011;64595;50.148;14.334;2023-06-10T02:16:33;19.02;;;12.05;;
75916;SDS011;64595;50.148;14.334;2023-06-10T02:18:59;20.33;;;12.30;;
75916;SDS011;64595;50.148;14.334;2023-06-10T02:21:24;18.92;;;12.20;;
75916;SDS011;64595;50.148;14.334;2023-06-10T02:23:50;21.08;;;12.48;;
75916;SDS011;64595;50.148;14.334;2023-06-10T02:26:15;18.88;;;11.60;;
75916;SDS011;64595;50.148;14.334;2023-06-10T02:28:42;18.40;;;11.32;;
75916;SDS011;64595;50.148;14.334;2023-06-10T02:31:09;19.92;;;13.35;;
75916;SDS011;64595;50.148;14.334;2023-06-10T02:33:34;20.77;;;12.55;;
75916;SDS011;64595;50.148;14.334;2023-06-10T02:36:00;20.35;;;12.75;;
75916;SDS011;64595;50.148;14.334;2023-06-10T02:38:25;18.63;;;12.48;;
75916;SDS011;64595;50.148;14.334;2023-06-10T02:40:51;18.77;;;11.60;;
75916;SDS011;64595;50.148;14.334;2023-06-10T02:43:16;20.02;;;12.48;;
75916;SDS011;64595;50.148;14.334;2023-06-10T02:45:42;20.85;;;11.77;;
75916;SDS011;64595;50.148;14.334;2023-06-10T02:48:09;23.50;;;12.68;;
75916;SDS011;64595;50.148;14.334;2023-06-10T02:50:35;19.23;;;12.38;;
75916;SDS011;64595;50.148;14.334;2023-06-10T02:53:00;19.10;;;12.18;;
75916;SDS011;64595;50.148;14.334;2023-06-10T02:55:26;19.45;;;12.55;;
75916;SDS011;64595;50.148;14.334;2023-06-10T02:57:51;18.00;;;12.20;;
75916;SDS011;64595;50.148;14.334;2023-06-10T03:00:17;18.30;;;11.18;;
75916;SDS011;64595;50.148;14.334;2023-06-10T03:02:43;18.15;;;11.65;;
75916;SDS011;64595;50.148;14.334;2023-06-10T03:05:10;21.42;;;11.13;;
75916;SDS011;64595;50.148;14.334;2023-06-10T03:07:36;18.20;;;11.55;;
75916;SDS011;64595;50.148;14.334;2023-06-10T03:10:01;20.25;;;11.98;;
75916;SDS011;64595;50.148;14.334;2023-06-10T03:12:27;15.10;;;10.60;;
75916;SDS011;64595;50.148;14.334;2023-06-10T03:14:53;19.25;;;11.05;;
75916;SDS011;64595;50.148;14.334;2023-06-10T03:17:18;17.67;;;11.63;;
75916;SDS011;64595;50.148;14.334;2023-06-10T03:19:44;20.50;;;12.57;;
75916;SDS011;64595;50.148;14.334;2023-06-10T03:22:12;26.23;;;13.68;;
75916;SDS011;64595;50.148;14.334;2023-06-10T03:24:38;20.23;;;12.30;;
75916;SDS011;64595;50.148;14.334;2023-06-10T03:27:03;18.98;;;12.48;;
75916;SDS011;64595;50.148;14.334;2023-06-10T03:29:29;19.58;;;12.18;;
75916;SDS011;64595;50.148;14.334;2023-06-10T03:31:55;20.55;;;13.70;;
75916;SDS011;64595;50.148;14.334;2023-06-10T03:34:21;19.23;;;11.45;;
75916;SDS011;64595;50.148;14.334;2023-06-10T03:36:46;21.15;;;11.75;;
75916;SDS011;64595;50.148;14.334;2023-06-10T03:39:13;22.88;;;12.90;;
75916;SDS011;64595;50.148;14.334;2023-06-10T03:41:38;18.05;;;11.45;;
75916;SDS011;64595;50.148;14.334;2023-06-10T03:44:04;20.98;;;12.15;;
75916;SDS011;64595;50.148;14.334;2023-06-10T03:46:29;19.73;;;11.32;;
75916;SDS011;64595;50.148;14.334;2023-06-10T03:48:55;18.52;;;11.70;;
75916;SDS011;64595;50.148;14.334;2023-06-10T03:51:20;17.00;;;11.52;;
75916;SDS011;64595;50.148;14.334;2023-06-10T03:53:46;18.95;;;11.98;;
75916;SDS011;64595;50.148;14.334;2023-06-10T03:56:13;20.75;;;12.95;;
75916;SDS011;64595;50.148;14.334;2023-06-10T03:58:38;21.27;;;11.73;;
75916;SDS011;64595;50.148;14.334;2023-06-10T04:01:04;21.60;;;12.40;;
75916;SDS011;64595;50.148;14.334;2023-06-10T04:03:29;22.83;;;12.73;;
75916;SDS011;64595;50.148;14.334;2023-06-10T04:05:55;20.60;;;13.32;;
75916;SDS011;64595;50.148;14.334;2023-06-10T04:08:21;20.40;;;12.90;;
75916;SDS011;64595;50.148;14.334;2023-06-10T04:10:46;21.30;;;12.60;;
75916;SDS011;64595;50.148;14.334;2023-06-10T04:13:13;21.83;;;13.35;;
75916;SDS011;64595;50.148;14.334;2023-06-10T04:15:38;22.42;;;14.23;;
75916;SDS011;64595;50.148;14.334;2023-06-10T04:18:04;25.70;;;14.98;;
75916;SDS011;64595;50.148;14.334;2023-06-10T04:20:30;30.27;;;15.65;;
75916;SDS011;64595;50.148;14.334;2023-06-10T04:22:55;29.30;;;16.75;;
75916;SDS011;64595;50.148;14.334;2023-06-10T04:25:21;33.83;;;16.90;;
75916;SDS011;64595;50.148;14.334;2023-06-10T04:27:46;29.13;;;16.33;;
75916;SDS011;64595;50.148;14.334;2023-06-10T04:30:21;29.40;;;16.05;;
75916;SDS011;64595;50.148;14.334;2023-06-10T04:32:47;28.80;;;16.52;;
75916;SDS011;64595;50.148;14.334;2023-06-10T04:35:12;28.35;;;16.92;;
75916;SDS011;64595;50.148;14.334;2023-06-10T04:37:38;29.88;;;17.85;;
75916;SDS011;64595;50.148;14.334;2023-06-10T04:40:04;27.30;;;16.30;;
75916;SDS011;64595;50.148;14.334;2023-06-10T04:42:30;25.17;;;16.30;;
75916;SDS011;64595;50.148;14.334;2023-06-10T04:44:56;25.15;;;16.23;;
75916;SDS011;64595;50.148;14.334;2023-06-10T04:47:23;31.40;;;16.58;;
75916;SDS011;64595;50.148;14.334;2023-06-10T04:49:48;29.00;;;16.35;;
75916;SDS011;64595;50.148;14.334;2023-06-10T04:52:14;24.30;;;15.80;;
75916;SDS011;64595;50.148;14.334;2023-06-10T04:54:39;25.98;;;15.52;;
75916;SDS011;64595;50.148;14.334;2023-06-10T04:57:05;23.77;;;15.02;;
75916;SDS011;64595;50.148;14.334;2023-06-10T04:59:31;26.70;;;16.75;;
75916;SDS011;64595;50.148;14.334;2023-06-10T05:01:57;28.60;;;15.68;;
75916;SDS011;64595;50.148;14.334;2023-06-10T05:04:24;25.98;;;16.70;;
75916;SDS011;64595;50.148;14.334;2023-06-10T05:06:49;22.38;;;14.98;;
75916;SDS011;64595;50.148;14.334;2023-06-10T05:09:15;26.88;;;16.42;;
75916;SDS011;64595;50.148;14.334;2023-06-10T05:11:40;27.67;;;16.13;;
75916;SDS011;64595;50.148;14.334;2023-06-10T05:14:06;25.98;;;16.98;;
75916;SDS011;64595;50.148;14.334;2023-06-10T05:16:31;24.45;;;15.90;;
75916;SDS011;64595;50.148;14.334;2023-06-10T05:18:57;25.20;;;15.98;;
75916;SDS011;64595;50.148;14.334;2023-06-10T05:21:24;21.92;;;15.20;;
75916;SDS011;64595;50.148;14.334;2023-06-10T05:23:49;20.90;;;15.35;;
75916;SDS011;64595;50.148;14.334;2023-06-10T05:26:15;22.67;;;15.50;;
75916;SDS011;64595;50.148;14.334;2023-06-10T05:28:40;18.98;;;14.27;;
75916;SDS011;64595;50.148;14.334;2023-06-10T05:31:06;18.55;;;14.00;;
75916;SDS011;64595;50.148;14.334;2023-06-10T05:33:31;17.83;;;13.05;;
75916;SDS011;64595;50.148;14.334;2023-06-10T05:35:57;18.88;;;13.52;;
75916;SDS011;64595;50.148;14.334;2023-06-10T05:38:23;18.58;;;13.82;;
75916;SDS011;64595;50.148;14.334;2023-06-10T05:40:49;16.10;;;12.23;;
75916;SDS011;64595;50.148;14.334;2023-06-10T05:43:14;15.65;;;12.38;;
75916;SDS011;64595;50.148;14.334;2023-06-10T05:45:40;14.57;;;10.90;;
75916;SDS011;64595;50.148;14.334;2023-06-10T05:48:05;13.45;;;10.48;;
75916;SDS011;64595;50.148;14.334;2023-06-10T05:50:31;15.13;;;10.55;;
75916;SDS011;64595;50.148;14.334;2023-06-10T05:52:56;12.07;;;10.02;;
75916;SDS011;64595;50.148;14.334;2023-06-10T05:55:23;12.85;;;9.02;;
75916;SDS011;64595;50.148;14.334;2023-06-10T05:57:57;9.68;;;8.13;;
75916;SDS011;64595;50.148;14.334;2023-06-10T06:00:23;11.38;;;9.32;;
75916;SDS011;64595;50.148;14.334;2023-06-10T06:02:49;12.25;;;9.35;;
75916;SDS011;64595;50.148;14.334;2023-06-10T06:05:14;10.82;;;9.15;;
75916;SDS011;64595;50.148;14.334;2023-06-10T06:07:40;9.85;;;8.45;;
75916;SDS011;64595;50.148;14.334;2023-06-10T06:10:06;11.63;;;8.52;;
75916;SDS011;64595;50.148;14.334;2023-06-10T06:12:33;11.70;;;9.48;;
75916;SDS011;64595;50.148;14.334;2023-06-10T06:14:59;9.95;;;8.38;;
75916;SDS011;64595;50.148;14.334;2023-06-10T06:17:24;12.27;;;8.70;;
75916;SDS011;64595;50.148;14.334;2023-06-10T06:19:50;12.77;;;8.95;;
75916;SDS011;64595;50.148;14.334;2023-06-10T06:22:15;9.60;;;8.05;;
75916;SDS011;64595;50.148;14.334;2023-06-10T06:24:41;9.90;;;8.43;;
75916;SDS011;64595;50.148;14.334;2023-06-10T06:27:06;9.77;;;8.25;;
75916;SDS011;64595;50.148;14.334;2023-06-10T06:29:33;12.02;;;8.63;;
75916;SDS011;64595;50.148;14.334;2023-06-10T06:31:58;10.98;;;8.82;;
75916;SDS011;64595;50.148;14.334;2023-06-10T06:34:24;11.07;;;8.52;;
75916;SDS011;64595;50.148;14.334;2023-06-10T06:36:49;10.90;;;9.20;;
75916;SDS011;64595;50.148;14.334;2023-06-10T06:39:15;10.98;;;8.02;;
75916;SDS011;64595;50.148;14.334;2023-06-10T06:41:40;9.85;;;8.55;;
75916;SDS011;64595;50.148;14.334;2023-06-10T06:44:06;9.63;;;7.82;;
75916;SDS011;64595;50.148;14.334;2023-06-10T06:46:32;12.52;;;8.60;;
75916;SDS011;64595;50.148;14.334;2023-06-10T06:48:58;11.27;;;8.73;;
75916;SDS011;64595;50.148;14.334;2023-06-10T06:51:23;10.15;;;8.20;;
75916;SDS011;64595;50.148;14.334;2023-06-10T06:53:49;8.90;;;8.00;;
75916;SDS011;64595;50.148;14.334;2023-06-10T06:56:14;9.48;;;8.15;;
75916;SDS011;64595;50.148;14.334;2023-06-10T06:58:40;14.38;;;8.68;;
75916;SDS011;64595;50.148;14.334;2023-06-10T07:01:06;11.00;;;8.38;;
75916;SDS011;64595;50.148;14.334;2023-06-10T07:03:33;9.50;;;7.35;;
75916;SDS011;64595;50.148;14.334;2023-06-10T07:05:58;9.02;;;7.80;;
75916;SDS011;64595;50.148;14.334;2023-06-10T07:08:24;8.80;;;7.50;;
75916;SDS011;64595;50.148;14.334;2023-06-10T07:10:49;7.25;;;6.55;;
75916;SDS011;64595;50.148;14.334;2023-06-10T07:13:15;7.50;;;6.72;;
75916;SDS011;64595;50.148;14.334;2023-06-10T07:15:40;8.95;;;6.68;;
75916;SDS011;64595;50.148;14.334;2023-06-10T07:18:06;7.57;;;6.60;;
75916;SDS011;64595;50.148;14.334;2023-06-10T07:20:33;8.30;;;6.90;;
75916;SDS011;64595;50.148;14.334;2023-06-10T07:22:58;7.45;;;6.63;;
75916;SDS011;64595;50.148;14.334;2023-06-10T07:25:24;8.18;;;6.47;;
75916;SDS011;64595;50.148;14.334;2023-06-10T07:27:49;6.78;;;6.05;;
75916;SDS011;64595;50.148;14.334;2023-06-10T07:30:15;8.13;;;7.20;;
75916;SDS011;64595;50.148;14.334;2023-06-10T07:32:40;9.30;;;8.15;;
75916;SDS011;64595;50.148;14.334;2023-06-10T07:35:08;8.98;;;7.47;;
75916;SDS011;64595;50.148;14.334;2023-06-10T07:37:35;11.00;;;7.88;;
75916;SDS011;64595;50.148;14.334;2023-06-10T07:40:01;8.25;;;7.45;;
75916;SDS011;64595;50.148;14.334;2023-06-10T07:42:26;9.45;;;7.00;;
75916;SDS011;64595;50.148;14.334;2023-06-10T07:44:52;8.05;;;7.25;;
75916;SDS011;64595;50.148;14.334;2023-06-10T07:47:17;8.15;;;7.35;;
75916;SDS011;64595;50.148;14.334;2023-06-10T07:49:43;8.88;;;7.38;;
75916;SDS011;64595;50.148;14.334;2023-06-10T07:52:08;10.77;;;7.45;;
75916;SDS011;64595;50.148;14.334;2023-06-10T07:54:35;9.38;;;7.95;;
75916;SDS011;64595;50.148;14.334;2023-06-10T07:57:01;9.15;;;8.25;;
75916;SDS011;64595;50.148;14.334;2023-06-10T07:59:26;12.85;;;8.02;;
75916;SDS011;64595;50.148;14.334;2023-06-10T08:01:52;10.52;;;8.75;;
75916;SDS011;64595;50.148;14.334;2023-06-10T08:04:18;11.05;;;9.15;;
75916;SDS011;64595;50.148;14.334;2023-06-10T08:06:43;11.70;;;7.70;;
75916;SDS011;64595;50.148;14.334;2023-06-10T08:09:09;9.68;;;8.48;;
75916;SDS011;64595;50.148;14.334;2023-06-10T08:11:36;10.50;;;8.35;;
75916;SDS011;64595;50.148;14.334;2023-06-10T08:14:01;10.65;;;8.45;;
75916;SDS011;64595;50.148;14.334;2023-06-10T08:16:27;11.23;;;9.07;;
75916;SDS011;64595;50.148;14.334;2023-06-10T08:18:52;9.80;;;8.80;;
75916;SDS011;64595;50.148;14.334;2023-06-10T08:21:18;9.18;;;8.20;;
75916;SDS011;64595;50.148;14.334;2023-06-10T08:23:43;10.13;;;9.00;;
75916;SDS011;64595;50.148;14.334;2023-06-10T08:26:09;10.20;;;9.07;;
75916;SDS011;64595;50.148;14.334;2023-06-10T08:28:35;10.63;;;9.27;;
75916;SDS011;64595;50.148;14.334;2023-06-10T08:31:01;10.45;;;9.35;;
75916;SDS011;64595;50.148;14.334;2023-06-10T08:33:26;10.18;;;8.75;;
75916;SDS011;64595;50.148;14.334;2023-06-10T08:35:52;8.98;;;8.07;;
75916;SDS011;64595;50.148;14.334;2023-06-10T08:38:17;10.25;;;8.82;;
75916;SDS011;64595;50.148;14.334;2023-06-10T08:40:43;13.63;;;9.48;;
75916;SDS011;64595;50.148;14.334;2023-06-10T08:43:10;10.38;;;9.27;;
75916;SDS011;64595;50.148;14.334;2023-06-10T08:45:42;9.80;;;8.90;;
75916;SDS011;64595;50.148;14.334;2023-06-10T08:48:08;10.00;;;8.93;;
75916;SDS011;64595;50.148;14.334;2023-06-10T08:50:35;10.60;;;8.60;;
75916;SDS011;64595;50.148;14.334;2023-06-10T08:53:01;10.52;;;9.05;;
75916;SDS011;64595;50.148;14.334;2023-06-10T08:55:29;10.68;;;8.93;;
75916;SDS011;64595;50.148;14.334;2023-06-10T08:57:55;10.43;;;8.57;;
75916;SDS011;64595;50.148;14.334;2023-06-10T09:00:21;13.30;;;9.70;;
75916;SDS011;64595;50.148;14.334;2023-06-10T09:02:48;12.35;;;9.07;;
75916;SDS011;64595;50.148;14.334;2023-06-10T09:05:13;10.10;;;8.85;;
75916;SDS011;64595;50.148;14.334;2023-06-10T09:07:39;10.70;;;8.13;;
75916;SDS011;64595;50.148;14.334;2023-06-10T09:10:05;9.23;;;8.32;;
75916;SDS011;64595;50.148;14.334;2023-06-10T09:12:31;9.25;;;7.88;;
75916;SDS011;64595;50.148;14.334;2023-06-10T09:14:56;9.55;;;8.32;;
75916;SDS011;64595;50.148;14.334;2023-06-10T09:17:22;8.65;;;7.75;;
75916;SDS011;64595;50.148;14.334;2023-06-10T09:19:49;9.98;;;7.30;;
75916;SDS011;64595;50.148;14.334;2023-06-10T09:22:15;11.07;;;7.85;;
75916;SDS011;64595;50.148;14.334;2023-06-10T09:24:41;8.07;;;7.28;;
75916;SDS011;64595;50.148;14.334;2023-06-10T09:27:07;9.75;;;7.72;;
75916;SDS011;64595;50.148;14.334;2023-06-10T09:29:43;8.48;;;7.20;;
75916;SDS011;64595;50.148;14.334;2023-06-10T09:32:10;8.25;;;7.07;;
75916;SDS011;64595;50.148;14.334;2023-06-10T09:34:36;9.57;;;7.93;;
75916;SDS011;64595;50.148;14.334;2023-06-10T09:37:03;10.48;;;8.35;;
75916;SDS011;64595;50.148;14.334;2023-06-10T09:39:29;10.20;;;7.78;;
75916;SDS011;64595;50.148;14.334;2023-06-10T09:41:54;8.98;;;8.05;;
75916;SDS011;64595;50.148;14.334;2023-06-10T09:44:20;8.52;;;7.70;;
75916;SDS011;64595;50.148;14.334;2023-06-10T09:46:46;9.15;;;8.25;;
75916;SDS011;64595;50.148;14.334;2023-06-10T09:49:13;8.70;;;7.80;;
75916;SDS011;64595;50.148;14.334;2023-06-10T09:51:44;10.57;;;7.63;;
75916;SDS011;64595;50.148;14.334;2023-06-10T09:54:15;8.85;;;7.95;;
75916;SDS011;64595;50.148;14.334;2023-06-10T09:56:41;8.57;;;7.78;;
75916;SDS011;64595;50.148;14.334;2023-06-10T09:59:06;9.93;;;7.65;;
75916;SDS011;64595;50.148;14.334;2023-06-10T10:01:32;9.23;;;8.13;;
75916;SDS011;64595;50.148;14.334;2023-06-10T10:03:57;9.73;;;8.45;;
75916;SDS011;64595;50.148;14.334;2023-06-10T10:06:23;10.52;;;7.93;;
75916;SDS011;64595;50.148;14.334;2023-06-10T10:08:49;9.40;;;8.40;;
75916;SDS011;64595;50.148;14.334;2023-06-10T10:11:18;10.10;;;8.35;;
75916;SDS011;64595;50.148;14.334;2023-06-10T10:13:45;9.30;;;8.30;;
75916;SDS011;64595;50.148;14.334;2023-06-10T10:16:15;10.00;;;8.73;;
75916;SDS011;64595;50.148;14.334;2023-06-10T10:18:43;10.45;;;8.25;;
75916;SDS011;64595;50.148;14.334;2023-06-10T10:21:11;9.70;;;8.25;;
75916;SDS011;64595;50.148;14.334;2023-06-10T10:23:39;9.93;;;7.70;;
75916;SDS011;64595;50.148;14.334;2023-06-10T10:26:08;8.57;;;7.68;;
75916;SDS011;64595;50.148;14.334;2023-06-10T10:28:38;8.68;;;7.63;;
75916;SDS011;64595;50.148;14.334;2023-06-10T10:31:07;9.65;;;7.47;;
75916;SDS011;64595;50.148;14.334;2023-06-10T10:33:36;11.45;;;7.18;;
75916;SDS011;64595;50.148;14.334;2023-06-10T10:36:05;7.57;;;6.78;;
75916;SDS011;64595;50.148;14.334;2023-06-10T10:38:31;8.93;;;7.00;;
75916;SDS011;64595;50.148;14.334;2023-06-10T10:40:57;9.82;;;7.40;;
75916;SDS011;64595;50.148;14.334;2023-06-10T10:43:23;8.80;;;7.13;;
75916;SDS011;64595;50.148;14.334;2023-06-10T10:45:58;9.57;;;7.65;;
75916;SDS011;64595;50.148;14.334;2023-06-10T10:48:24;8.50;;;7.50;;
75916;SDS011;64595;50.148;14.334;2023-06-10T10:50:55;10.60;;;7.68;;
75916;SDS011;64595;50.148;14.334;2023-06-10T10:53:21;9.45;;;7.95;;
75916;SDS011;64595;50.148;14.334;2023-06-10T10:55:57;11.60;;;7.82;;
75916;SDS011;64595;50.148;14.334;2023-06-10T10:58:24;10.00;;;8.43;;
75916;SDS011;64595;50.148;14.334;2023-06-10T11:00:50;8.90;;;8.00;;
75916;SDS011;64595;50.148;14.334;2023-06-10T11:03:17;8.30;;;7.50;;
75916;SDS011;64595;50.148;14.334;2023-06-10T11:05:43;8.98;;;7.93;;
75916;SDS011;64595;50.148;14.334;2023-06-10T11:08:10;8.05;;;7.25;;
75916;SDS011;64595;50.148;14.334;2023-06-10T11:10:36;8.15;;;7.35;;
75916;SDS011;64595;50.148;14.334;2023-06-10T11:13:08;11.48;;;7.95;;
75916;SDS011;64595;50.148;14.334;2023-06-10T11:15:37;8.95;;;8.05;;
75916;SDS011;64595;50.148;14.334;2023-06-10T11:18:10;8.75;;;7.53;;
75916;SDS011;64595;50.148;14.334;2023-06-10T11:20:45;10.35;;;7.68;;
75916;SDS011;64595;50.148;14.334;2023-06-10T11:29:06;7.78;;;6.90;;
75916;SDS011;64595;50.148;14.334;2023-06-10T11:31:32;7.95;;;7.03;;
75916;SDS011;64595;50.148;14.334;2023-06-10T11:33:59;10.23;;;7.93;;
75916;SDS011;64595;50.148;14.334;2023-06-10T11:38:53;9.68;;;8.68;;
75916;SDS011;64595;50.148;14.334;2023-06-10T11:41:20;10.73;;;9.05;;
75916;SDS011;64595;50.148;14.334;2023-06-10T11:43:45;9.25;;;8.30;;
75916;SDS011;64595;50.148;14.334;2023-06-10T11:46:11;8.60;;;7.68;;
75916;SDS011;64595;50.148;14.334;2023-06-10T11:48:37;9.57;;;8.23;;
75916;SDS011;64595;50.148;14.334;2023-06-10T11:51:05;9.27;;;7.47;;
75916;SDS011;64595;50.148;14.334;2023-06-10T11:53:32;7.63;;;6.82;;
75916;SDS011;64595;50.148;14.334;2023-06-10T11:55:58;7.95;;;7.15;;
75916;SDS011;64595;50.148;14.334;2023-06-10T11:58:23;8.45;;;7.57;;
75916;SDS011;64595;50.148;14.334;2023-06-10T12:00:49;7.97;;;7.15;;
75916;SDS011;64595;50.148;14.334;2023-06-10T12:03:16;9.70;;;7.50;;
75916;SDS011;64595;50.148;14.334;2023-06-10T12:05:53;12.05;;;9.75;;
75916;SDS011;64595;50.148;14.334;2023-06-10T12:08:20;9.73;;;7.75;;
75916;SDS011;64595;50.148;14.334;2023-06-10T12:10:47;8.88;;;7.22;;
75916;SDS011;64595;50.148;14.334;2023-06-10T12:13:12;10.90;;;7.18;;
75916;SDS011;64595;50.148;14.334;2023-06-10T12:15:38;8.27;;;7.32;;
75916;SDS011;64595;50.148;14.334;2023-06-10T12:18:04;11.68;;;8.43;;
75916;SDS011;64595;50.148;14.334;2023-06-10T12:20:30;16.55;;;11.93;;
75916;SDS011;64595;50.148;14.334;2023-06-10T12:22:57;10.98;;;9.13;;
75916;SDS011;64595;50.148;14.334;2023-06-10T12:25:24;9.60;;;7.75;;
75916;SDS011;64595;50.148;14.334;2023-06-10T12:27:51;12.65;;;7.55;;
75916;SDS011;64595;50.148;14.334;2023-06-10T12:30:18;8.63;;;7.80;;
75916;SDS011;64595;50.148;14.334;2023-06-10T12:32:45;13.38;;;7.90;;
75916;SDS011;64595;50.148;14.334;2023-06-10T12:35:11;9.93;;;8.30;;
75916;SDS011;64595;50.148;14.334;2023-06-10T12:37:41;9.07;;;7.32;;
75916;SDS011;64595;50.148;14.334;2023-06-10T12:40:07;10.10;;;9.07;;
75916;SDS011;64595;50.148;14.334;2023-06-10T12:45:01;9.18;;;8.25;;
75916;SDS011;64595;50.148;14.334;2023-06-10T12:47:31;8.10;;;7.30;;
75916;SDS011;64595;50.148;14.334;2023-06-10T12:49:57;8.10;;;6.95;;
75916;SDS011;64595;50.148;14.334;2023-06-10T12:52:22;7.43;;;6.53;;
75916;SDS011;64595;50.148;14.334;2023-06-10T12:54:48;9.43;;;7.25;;
75916;SDS011;64595;50.148;14.334;2023-06-10T12:57:13;8.32;;;6.85;;
75916;SDS011;64595;50.148;14.334;2023-06-10T12:59:39;9.73;;;6.75;;
75916;SDS011;64595;50.148;14.334;2023-06-10T13:02:06;6.80;;;6.20;;
75916;SDS011;64595;50.148;14.334;2023-06-10T13:04:31;10.63;;;7.03;;
75916;SDS011;64595;50.148;14.334;2023-06-10T13:06:56;7.28;;;6.60;;
75916;SDS011;64595;50.148;14.334;2023-06-10T13:09:22;10.45;;;7.00;;
75916;SDS011;64595;50.148;14.334;2023-06-10T13:11:47;8.77;;;7.18;;
75916;SDS011;64595;50.148;14.334;2023-06-10T13:14:13;10.27;;;7.57;;
75916;SDS011;64595;50.148;14.334;2023-06-10T13:16:38;9.60;;;7.75;;
75916;SDS011;64595;50.148;14.334;2023-06-10T13:19:06;14.77;;;9.05;;
75916;SDS011;64595;50.148;14.334;2023-06-10T13:21:31;16.17;;;8.57;;
75916;SDS011;64595;50.148;14.334;2023-06-10T13:23:57;16.42;;;8.95;;
75916;SDS011;64595;50.148;14.334;2023-06-10T13:26:22;18.30;;;9.52;;
75916;SDS011;64595;50.148;14.334;2023-06-10T13:28:49;19.70;;;9.25;;
75916;SDS011;64595;50.148;14.334;2023-06-10T13:31:14;13.02;;;9.45;;
75916;SDS011;64595;50.148;14.334;2023-06-10T13:33:40;14.43;;;9.40;;
75916;SDS011;64595;50.148;14.334;2023-06-10T13:36:07;11.15;;;10.05;;
75916;SDS011;64595;50.148;14.334;2023-06-10T13:38:32;15.50;;;10.77;;
75916;SDS011;64595;50.148;14.334;2023-06-10T13:40:57;13.48;;;9.35;;
75916;SDS011;64595;50.148;14.334;2023-06-10T13:43:23;12.55;;;10.15;;
75916;SDS011;64595;50.148;14.334;2023-06-10T13:45:49;11.50;;;10.32;;
75916;SDS011;64595;50.148;14.334;2023-06-10T13:48:14;13.93;;;11.15;;
75916;SDS011;64595;50.148;14.334;2023-06-10T13:50:39;13.40;;;10.05;;
75916;SDS011;64595;50.148;14.334;2023-06-10T13:53:06;11.63;;;9.52;;
75916;SDS011;64595;50.148;14.334;2023-06-10T13:55:32;10.38;;;9.35;;
75916;SDS011;64595;50.148;14.334;2023-06-10T13:57:57;10.18;;;9.15;;
75916;SDS011;64595;50.148;14.334;2023-06-10T14:00:23;10.73;;;9.63;;
75916;SDS011;64595;50.148;14.334;2023-06-10T14:02:48;8.38;;;7.57;;
75916;SDS011;64595;50.148;14.334;2023-06-10T14:05:14;9.85;;;7.20;;
75916;SDS011;64595;50.148;14.334;2023-06-10T14:07:40;8.95;;;7.28;;
75916;SDS011;64595;50.148;14.334;2023-06-10T14:10:07;8.77;;;6.93;;
75916;SDS011;64595;50.148;14.334;2023-06-10T14:12:33;7.03;;;6.30;;
75916;SDS011;64595;50.148;14.334;2023-06-10T14:14:58;7.03;;;6.35;;
75916;SDS011;64595;50.148;14.334;2023-06-10T14:17:24;7.65;;;6.45;;
75916;SDS011;64595;50.148;14.334;2023-06-10T14:19:49;7.50;;;6.68;;
75916;SDS011;64595;50.148;14.334;2023-06-10T14:22:15;7.43;;;6.60;;
75916;SDS011;64595;50.148;14.334;2023-06-10T14:24:40;9.80;;;6.88;;
75916;SDS011;64595;50.148;14.334;2023-06-10T14:27:07;6.78;;;6.00;;